TFEPG BIVM-BIIS
Flight info
| Callsign | TFEPG |
|---|---|
| Flight time | N/A |
| Altitude | 13000 |
| Route | DCT LUTER DCT REKVA DCT SKALM DCT RE |
| Aircraft | SR22/L-SBGRY/C |
Departure
| Time | 2026-05-08 13:10 |
|---|---|
| Airport | Vestmannaeyjar Airport (BIVM) |
Arrival
| Time | N/A |
|---|---|
| Airport | Ísafjörður Airport (BIIS) |
| Time | Latitude | Longitude | Altitude | Speed | Heading |
|---|---|---|---|---|---|
| 2026-05-08 12:57 | 63.42451 | -20.26951 | 331 ft | 0 kts | 346° |
| 2026-05-08 13:07 | 63.42456 | -20.26955 | 331 ft | 2 kts | 313° |
| 2026-05-08 13:07 | 63.42467 | -20.27013 | 329 ft | 2 kts | 288° |
| 2026-05-08 13:07 | 63.42439 | -20.27077 | 328 ft | 5 kts | 204° |
| 2026-05-08 13:07 | 63.42434 | -20.27081 | 328 ft | 0 kts | 202° |
| 2026-05-08 13:08 | 63.42378 | -20.27121 | 327 ft | 10 kts | 168° |
| 2026-05-08 13:08 | 63.42341 | -20.26984 | 332 ft | 13 kts | 115° |
| 2026-05-08 13:08 | 63.42307 | -20.26765 | 338 ft | 14 kts | 113° |
| 2026-05-08 13:08 | 63.42268 | -20.26553 | 345 ft | 10 kts | 145° |
| 2026-05-08 13:09 | 63.42266 | -20.26525 | 345 ft | 0 kts | 291° |
| 2026-05-08 13:10 | 63.42290 | -20.26676 | 341 ft | 38 kts | 292° |
| 2026-05-08 13:10 | 63.42455 | -20.27727 | 422 ft | 90 kts | 301° |
| 2026-05-08 13:10 | 63.42664 | -20.28963 | 916 ft | 79 kts | 301° |
| 2026-05-08 13:10 | 63.42780 | -20.30211 | 1270 ft | 90 kts | 294° |
| 2026-05-08 13:11 | 63.42908 | -20.31758 | 1443 ft | 113 kts | 292° |
| 2026-05-08 13:11 | 63.43075 | -20.33569 | 1726 ft | 123 kts | 291° |
| 2026-05-08 13:11 | 63.43276 | -20.35471 | 1995 ft | 131 kts | 293° |
| 2026-05-08 13:11 | 63.43657 | -20.37285 | 2288 ft | 129 kts | 310° |
| 2026-05-08 13:12 | 63.44112 | -20.38961 | 2698 ft | 126 kts | 305° |
| 2026-05-08 13:12 | 63.44646 | -20.40409 | 3077 ft | 120 kts | 326° |
| 2026-05-08 13:12 | 63.45318 | -20.41518 | 3424 ft | 120 kts | 328° |
| 2026-05-08 13:12 | 63.46000 | -20.42602 | 3763 ft | 121 kts | 328° |
| 2026-05-08 13:13 | 63.46677 | -20.43677 | 4098 ft | 121 kts | 328° |
| 2026-05-08 13:13 | 63.47364 | -20.44768 | 4436 ft | 121 kts | 328° |
| 2026-05-08 13:13 | 63.48047 | -20.45856 | 4748 ft | 122 kts | 328° |
| 2026-05-08 13:13 | 63.48740 | -20.46957 | 5061 ft | 122 kts | 328° |
| 2026-05-08 13:14 | 63.49383 | -20.47986 | 5352 ft | 122 kts | 328° |
| 2026-05-08 13:14 | 63.50076 | -20.49091 | 5665 ft | 122 kts | 328° |
| 2026-05-08 13:14 | 63.50763 | -20.50188 | 5977 ft | 121 kts | 328° |
| 2026-05-08 13:14 | 63.51443 | -20.51274 | 6287 ft | 120 kts | 328° |
| 2026-05-08 13:15 | 63.52123 | -20.52357 | 6591 ft | 120 kts | 328° |
| 2026-05-08 13:15 | 63.52803 | -20.53442 | 6866 ft | 121 kts | 327° |
| 2026-05-08 13:15 | 63.53493 | -20.54544 | 7131 ft | 122 kts | 327° |
| 2026-05-08 13:15 | 63.54179 | -20.55643 | 7391 ft | 123 kts | 328° |
| 2026-05-08 13:16 | 63.54883 | -20.56771 | 7654 ft | 123 kts | 328° |
| 2026-05-08 13:16 | 63.55613 | -20.57734 | 7917 ft | 122 kts | 348° |
| 2026-05-08 13:16 | 63.56457 | -20.57715 | 8180 ft | 123 kts | 3° |
| 2026-05-08 13:16 | 63.57298 | -20.57478 | 8432 ft | 123 kts | 5° |
| 2026-05-08 13:17 | 63.58145 | -20.57195 | 8691 ft | 122 kts | 6° |
| 2026-05-08 13:17 | 63.58981 | -20.56892 | 8949 ft | 122 kts | 6° |
| 2026-05-08 13:17 | 63.59808 | -20.56585 | 9206 ft | 121 kts | 6° |
| 2026-05-08 13:18 | 63.62467 | -20.55561 | 10055 ft | 118 kts | 6° |
| 2026-05-08 13:18 | 63.63271 | -20.55252 | 10314 ft | 117 kts | 5° |
| 2026-05-08 13:18 | 63.64065 | -20.54945 | 10567 ft | 116 kts | 5° |
| 2026-05-08 13:19 | 63.64853 | -20.54636 | 10823 ft | 114 kts | 5° |
| 2026-05-08 13:19 | 63.65627 | -20.54338 | 11077 ft | 113 kts | 5° |
| 2026-05-08 13:19 | 63.66393 | -20.54041 | 11338 ft | 111 kts | 5° |
| 2026-05-08 13:19 | 63.67161 | -20.53745 | 11519 ft | 115 kts | 5° |
| 2026-05-08 13:20 | 63.67970 | -20.53435 | 11660 ft | 120 kts | 5° |
| 2026-05-08 13:20 | 63.68802 | -20.53111 | 11792 ft | 125 kts | 5° |
| 2026-05-08 13:20 | 63.69668 | -20.52773 | 11924 ft | 128 kts | 6° |
| 2026-05-08 13:20 | 63.70558 | -20.52422 | 12054 ft | 130 kts | 5° |
| 2026-05-08 13:21 | 63.71457 | -20.52070 | 12177 ft | 132 kts | 6° |
| 2026-05-08 13:21 | 63.72368 | -20.51716 | 12310 ft | 133 kts | 5° |
| 2026-05-08 13:21 | 63.73278 | -20.51359 | 12440 ft | 134 kts | 6° |
| 2026-05-08 13:21 | 63.74201 | -20.50999 | 12524 ft | 136 kts | 5° |
| 2026-05-08 13:22 | 63.75149 | -20.50627 | 12592 ft | 139 kts | 5° |
| 2026-05-08 13:22 | 63.76115 | -20.50247 | 12670 ft | 141 kts | 6° |
| 2026-05-08 13:22 | 63.77084 | -20.49871 | 12751 ft | 142 kts | 6° |
| 2026-05-08 13:22 | 63.78063 | -20.49484 | 12821 ft | 143 kts | 6° |
| 2026-05-08 13:23 | 63.79040 | -20.49101 | 12894 ft | 144 kts | 6° |
| 2026-05-08 13:23 | 63.80041 | -20.48710 | 12968 ft | 145 kts | 6° |
| 2026-05-08 13:23 | 63.81023 | -20.48321 | 13042 ft | 145 kts | 6° |
| 2026-05-08 13:23 | 63.82014 | -20.47931 | 13114 ft | 145 kts | 6° |
| 2026-05-08 13:24 | 63.83008 | -20.47538 | 13184 ft | 144 kts | 6° |
| 2026-05-08 13:24 | 63.83986 | -20.47152 | 13237 ft | 145 kts | 6° |
| 2026-05-08 13:24 | 63.85004 | -20.46755 | 13247 ft | 148 kts | 5° |
| 2026-05-08 13:24 | 63.86019 | -20.46353 | 13246 ft | 151 kts | 6° |
| 2026-05-08 13:25 | 63.87054 | -20.45945 | 13243 ft | 152 kts | 6° |
| 2026-05-08 13:25 | 63.88104 | -20.45531 | 13246 ft | 153 kts | 6° |
| 2026-05-08 13:25 | 63.89151 | -20.45117 | 13250 ft | 154 kts | 6° |
| 2026-05-08 13:25 | 63.90213 | -20.44696 | 13248 ft | 155 kts | 6° |
| 2026-05-08 13:26 | 63.91282 | -20.44268 | 13241 ft | 155 kts | 6° |
| 2026-05-08 13:26 | 63.92344 | -20.43846 | 13246 ft | 157 kts | 6° |
| 2026-05-08 13:26 | 63.93423 | -20.43416 | 13247 ft | 159 kts | 6° |
| 2026-05-08 13:26 | 63.94526 | -20.42977 | 13243 ft | 159 kts | 6° |
| 2026-05-08 13:27 | 63.95611 | -20.42544 | 13242 ft | 160 kts | 6° |
| 2026-05-08 13:27 | 63.96701 | -20.42112 | 13238 ft | 160 kts | 6° |
| 2026-05-08 13:27 | 63.97797 | -20.41673 | 13237 ft | 160 kts | 6° |
| 2026-05-08 13:27 | 63.98890 | -20.41237 | 13244 ft | 160 kts | 6° |
| 2026-05-08 13:28 | 63.99985 | -20.40802 | 13250 ft | 161 kts | 6° |
| 2026-05-08 13:28 | 64.01085 | -20.40362 | 13243 ft | 161 kts | 6° |
| 2026-05-08 13:28 | 64.02179 | -20.39924 | 13244 ft | 161 kts | 6° |
| 2026-05-08 13:28 | 64.03290 | -20.39481 | 13242 ft | 161 kts | 6° |
| 2026-05-08 13:29 | 64.04386 | -20.39042 | 13240 ft | 161 kts | 6° |
| 2026-05-08 13:29 | 64.05489 | -20.38604 | 13238 ft | 161 kts | 6° |
| 2026-05-08 13:29 | 64.06590 | -20.38159 | 13241 ft | 161 kts | 6° |
| 2026-05-08 13:29 | 64.07697 | -20.37719 | 13242 ft | 161 kts | 6° |
| 2026-05-08 13:30 | 64.08797 | -20.37275 | 13243 ft | 161 kts | 6° |
| 2026-05-08 13:30 | 64.09900 | -20.36836 | 13244 ft | 161 kts | 6° |
| 2026-05-08 13:30 | 64.10995 | -20.36398 | 13249 ft | 162 kts | 6° |
| 2026-05-08 13:30 | 64.12075 | -20.36765 | 13250 ft | 159 kts | 336° |
| 2026-05-08 13:31 | 64.13051 | -20.37986 | 13252 ft | 160 kts | 332° |
| 2026-05-08 13:31 | 64.14014 | -20.39277 | 13248 ft | 161 kts | 331° |
| 2026-05-08 13:31 | 64.14970 | -20.40581 | 13238 ft | 160 kts | 331° |
| 2026-05-08 13:31 | 64.15918 | -20.41892 | 13235 ft | 159 kts | 331° |
| 2026-05-08 13:32 | 64.16859 | -20.43201 | 13238 ft | 159 kts | 331° |
| 2026-05-08 13:32 | 64.17805 | -20.44524 | 13243 ft | 159 kts | 331° |
| 2026-05-08 13:32 | 64.18752 | -20.45851 | 13243 ft | 160 kts | 330° |
| 2026-05-08 13:32 | 64.19691 | -20.47169 | 13242 ft | 160 kts | 330° |
| 2026-05-08 13:33 | 64.20643 | -20.48513 | 13237 ft | 160 kts | 331° |
| 2026-05-08 13:33 | 64.21591 | -20.49851 | 13241 ft | 160 kts | 330° |
| 2026-05-08 13:33 | 64.22536 | -20.51183 | 13245 ft | 160 kts | 331° |
| 2026-05-08 13:33 | 64.23490 | -20.52535 | 13235 ft | 161 kts | 330° |
| 2026-05-08 13:34 | 64.24425 | -20.53861 | 13357 ft | 154 kts | 331° |
| 2026-05-08 13:34 | 64.25321 | -20.55133 | 13491 ft | 150 kts | 331° |
| 2026-05-08 13:34 | 64.26191 | -20.56369 | 13622 ft | 146 kts | 331° |
| 2026-05-08 13:34 | 64.27052 | -20.57591 | 13748 ft | 144 kts | 331° |
| 2026-05-08 13:35 | 64.27902 | -20.58798 | 13889 ft | 142 kts | 331° |
| 2026-05-08 13:35 | 64.28728 | -20.59973 | 14020 ft | 140 kts | 331° |
| 2026-05-08 13:35 | 64.29559 | -20.61158 | 14153 ft | 139 kts | 331° |
| 2026-05-08 13:35 | 64.30389 | -20.62336 | 14192 ft | 144 kts | 331° |
| 2026-05-08 13:36 | 64.31245 | -20.63551 | 14186 ft | 148 kts | 330° |
| 2026-05-08 13:36 | 64.32138 | -20.64824 | 14181 ft | 151 kts | 331° |
| 2026-05-08 13:36 | 64.33051 | -20.66127 | 14177 ft | 154 kts | 330° |
| 2026-05-08 13:36 | 64.33955 | -20.67422 | 14171 ft | 155 kts | 330° |
| 2026-05-08 13:37 | 64.34877 | -20.68735 | 14165 ft | 156 kts | 330° |
| 2026-05-08 13:37 | 64.35796 | -20.70051 | 14163 ft | 156 kts | 330° |
| 2026-05-08 13:37 | 64.36719 | -20.71369 | 14157 ft | 157 kts | 330° |
| 2026-05-08 13:37 | 64.37638 | -20.72685 | 14150 ft | 157 kts | 330° |
| 2026-05-08 13:38 | 64.38567 | -20.74016 | 14153 ft | 157 kts | 330° |
| 2026-05-08 13:38 | 64.39493 | -20.75345 | 14151 ft | 157 kts | 330° |
| 2026-05-08 13:38 | 64.40427 | -20.76687 | 14149 ft | 157 kts | 330° |